今日のアクセス数

    岡山グライダークラブ活動状況掲示板

岡山グライダークラブ
岡山市浦安南町639-1 岡南飛行場
 使用機:シャイベ式 SF25C型 ファルケ   JA2330
      ヴァレンティン式17E型 タイフーン  JA2342
 練習日:毎日曜日  クラブルーム:電話 086-265-1810
この掲示板は岡山グライダークラブの活動状況をお知らせする掲示板です。
!!!この掲示板は投稿規制をしています。!!!
クラブ関連各種情報は 岡山グライダークラブクラブルーム      を       .
  ブリーフイング情報は  岡山グライダークラブブリーフィングルーム  をご覧下さい。 .
※写真はクリックすると拡大して見ることが出来ます。
岡南飛行場へのアクセス等は 岡南飛行場管理事務所 をご覧ください。
クラブの ホームページ ができました。

!!!最近のコロナ感染拡大に伴い、当面の間、見学者等の受入を中止しております。再開まで今しばらくお待ちください!!!

ページ 1 (1〜10)ホームページへ戻る

06月20日
by OGC at 2021/6/20(日) 16:10:33 No.20210620160822 コメント】  削除 引用
1030 x 768 x 51,958バイト <この画像は大きいので別画面で表示します>
No.1

06月20日
本日のリモート参加者
  会員      14名
  その他      0名


@本日の様子






METAR
RJBK 200000Z VRB03KT 30KM FEW025CU BKN/// 23/16 Q1003 A2962
RJOB 200000Z 01004KT 280V040 9999 FEW020 BKN/// 23/15 Q1003
RJOT 200000Z 28005KT 230V330 9999 FEW010 BKN/// 22/18 Q1003
RJOA 200000Z VRB01KT 9999 FEW025 BKN/// 22/16 Q1004
TAF
RJOB 192305Z 2000/2106 35004KT 9999 FEW030
          BECMG 2005/2007 17005KT
          BECMG 2009/2011 03004KT
          BECMG 2100/2103 19005KT
RJOT 192307Z 2000/2106 33004KT 9999 FEW030
          BECMG 2010/2012 15006KT
RJOA 192306Z 2000/2106 13004KT 9999 FEW025
          BECMG 2004/2006 20005KT
          BECMG 2021/2100 17005KT



本日、第14回リモートブリーフィングを開催しました。
緊急事態宣言が解除されたことから、次週27日から活動再開します。
また、今後の運営(土曜の活動等)について意見交換を行い、次週27日
に会員の意見を聴き正式決定する予定。

集合 10:00 解散    11:00

本日のフライトはありません。

 ハードディスクのエラーのチェックと修復方法    MACデータ復旧の費用

06月13日
by OGC at 2021/6/13(日) 11:10:50 No.20210613110823 コメント】  削除 引用
1054 x 786 x 52,419バイト <この画像は大きいので別画面で表示します>
No.1

06月13日
本日のリモート参加者
  会員      13名
  その他      0名


@本日の様子






METAR
RJBK 130000Z 06005KT 020V090 15KM FEW004ST SCT008ST BKN015CU 23/21 Q1012 A2990
RJOB 130000Z 03005KT 010V070 7000 PRFG FEW000 SCT005 BKN/// 21/20 Q1013
RJOT 130000Z 05006KT 6000 -SHRA BR FEW002 SCT005 BKN010 22/21 Q1012
RJOA 130000Z 14004KT 3000 BCFG BR FEW000 SCT003 BKN007 21/20 Q1013
TAF
RJOB 122308Z 1300/1406 08007KT 6000 -SHRA FEW003 SCT008 BKN015
      TEMPO 1300/1303 2000 -SHRA BR BCFG FEW000 SCT003 BKN005
      TEMPO 1309/1318 3000 SHRA BR BCFG FEW000 SCT003 BKN005
      TEMPO 1318/1400 4000 -SHRA BR BCFG FEW000 SCT003 BKN005
RJOT 122307Z 1300/1406 10005KT 9999 FEW010 SCT020 BKN035
      TEMPO 1300/1302 3000 -SHRA BR FEW001 SCT003 BKN005
      TEMPO 1312/1318 3000 SHRA BR FEW001 SCT003 BKN005
RJOA 122305Z 1300/1406 11006KT 2500 -SHRA BR BCFG FEW000 SCT003 BKN007
      TEMPO 1300/1303 0700 -SHRA FG FEW000 SCT001 BKN003
      BECMG 1303/1305 9999 NSW FEW015 SCT025 BKN040
      BECMG 1310/1312 3000 -SHRA BR BCFG FEW000 SCT005 BKN008
      BECMG 1400/1403 8000 -SHRA FEW005 SCT008 BKN020



本日、第13回リモートブリーフィングを開催しました。
勉強会ではDMEについて講義がありました。

集合 10:00 解散    11:00

本日のフライトはありません。

06月06日
by OGC at 2021/6/6(日) 11:00:21 No.20210606105754 コメント】  削除 引用
1040 x 777 x 52,478バイト <この画像は大きいので別画面で表示します>
No.1

06月06日
本日のリモート参加者
  会員      13名
  その他      0名


@本日の様子






METAR
RJBK 060000Z VRB01KT 20KM FEW030CU SCT180AC BKN/// 19/15 Q1009 A2980
RJOB 060000Z 11003KT 080V150 CAVOK 18/15 Q1009
RJOT 060000Z VRB02KT CAVOK 21/11 Q1009
RJOA 060000Z 21003KT 130V300 CAVOK 19/13 Q1010

TAF
RJOB 052305Z 0600/0706 18005KT 9999 FEW030
      BECMG 0602/0604 14006KT
      BECMG 0621/0700 20005KT
RJOT 052308Z 0600/0706 05005KT 9999 FEW030
      BECMG 0610/0612 22005KT
RJOA 052306Z 0600/0706 14005KT 9999 FEW030
      BECMG 0609/0611 34004KT
      BECMG 0700/0703 17005KT


本日、第12回リモートブリーフィングを開催しました。
勉強会ではADFについて講義がありました。

集合 10:00 解散    10:45

本日のフライトはありません。
05月30日
by OGC at 2021/5/30(日) 11:53:16 No.20210530113712 コメント】  削除 引用
1039 x 774 x 58,183バイト <この画像は大きいので別画面で表示します>
No.1

05月30日
本日のリモート参加者
  会員      11名
  その他      0名


@本日の様子






METAR
RJBK 300000Z VRB02KT 30KM SKC 21/14 Q1009 A2982
RJOB 300000Z VRB02KT CAVOK 19/12 Q1010
RJOT 300000Z VRB02KT 9999 FEW030 21/14 Q1010
RJOA 300000Z 24003KT 150V290 CAVOK 20/11 Q1010

TAF
RJOB 292308Z 3000/3106 26007KT 9999 FEW030 SCT045
    BECMG 3009/3011 02005KT
RJOT 292308Z 3000/3106 03005KT 9999 FEW035
RJOA 292305Z 3000/3106 16005KT 9999 FEW030
       BECMG 3007/3009 21004KT
       BECMG 3021/3100 06005KT


本日、第11回リモートブリーフィングを開催しました。
緊急事態宣言延長に伴い、6月20日まで活動自粛延長の周知がありました。
また、活動再開後の運用について会員の意見集約を行いましたので、今後、決定次第周知することになりました。
あと、勉強会ではADS−Bについて講義がありました。

集合 10:00 解散    11:00

本日のフライトはありません。
05月23日
by OGC at 2021/5/23(日) 11:10:47 No.20210523110802 コメント】  削除 引用
1032 x 768 x 32,211バイト <この画像は大きいので別画面で表示します>
No.1

05月23日
本日のリモート参加者
  会員       8名
  その他      0名


@本日の様子






METAR
RJBK 230000Z 26006KT 220V300 20KM FEW030CU 22/15 Q1011 A2986
RJOB 230000Z 24005KT 210V290 CAVOK 21/14 Q1011
RJOT 230000Z 26010KT CAVOK 21/13 Q1012
RJOA 230000Z VRB02KT CAVOK 19/15 Q1012

TAF
RJOB 222305Z 2300/2406 26005KT 9999 FEW025
  BECMG 2315/2318 04004KT
  BECMG 2400/2403 17005KT
RJOT 222309Z 2300/2406 27008KT 9999 FEW030
  BECMG 2318/2321 13004KT
RJOA 222306Z 2300/2406 30004KT 9999 FEW030 SCT045
  BECMG 2301/2303 17006KT
  BECMG 2307/2309 32004KT


本日、第10回リモートブリーフィングを開催しました。
勉強会では、TCASについて講義がありました。

集合 10:00 解散    11:00

本日のフライトはありません。
05月16日
by OGC at 2021/5/16(日) 15:03:14 No.20210516145314 コメント】  削除 引用
1243 x 871 x 34,819バイト <この画像は大きいので別画面で表示します>
No.1

05月16日
本日のリモート参加者
  会員      12名
  その他      0名


@本日の様子






METAR
RJBK 160000Z 09007KT 15KM -SHRA FEW008ST SCT025CU BKN050SC 20/19 Q1011 A2986
RJOB 160000Z 10007KT 3000 -SHRA BR BCFG FEW000 SCT002 BKN003 19/18 Q1012
RJOT 160000Z VRB02KT 4000 -SHRA BR FEW000 SCT002 BKN005 19/19 Q1011
RJOA 160000Z VRB02KT 1600 R10/0750VP1800D BCFG BR FEW000 SCT002 BKN010 19/18 Q1012
TAF
RJOB 152308Z 1600/1706 12007KT 7000 -SHRA FEW003 SCT008 BKN015
       TEMPO 1600/1603 3000 -SHRA BR BCFG FEW000 SCT005 BKN008
       BECMG 1607/1609 4000 -SHRA BR BCFG FEW000 SCT005 BKN008
       TEMPO 1609/1615 2000 -SHRA BR BCFG FEW000 SCT001 BKN005
       BECMG 1612/1615 25004KT
       TEMPO 1615/1700 1500 SHRA BR BCFG FEW000 SCT001 BKN003
RJOT 152310Z 1600/1706 25008KT 9999 FEW020
       TEMPO 1600/1601 3000 SHRA BR BCFG FEW000 SCT002 BKN005
       TEMPO 1618/1700 3000 TSRA BR FEW001 SCT003 BKN005 FEW010CB
RJOA 152310Z 1600/1706 16005KT 1200 -SHRA BR BCFG FEW000 SCT002 BKN005
       BECMG 1600/1602 8000 NSW FEW010 SCT025
       BECMG 1608/1610 24006KT 4000 -SHRA BR BCFG FEW000 SCT003 BKN008
       TEMPO 1610/1618 1200 SHRA BR BCFG FEW000 SCT001 BKN003
       TEMPO 1618/1700 2000 -SHRA BR BCFG FEW000 SCT001 BKN003
       BECMG 1700/1703 8000 NSW FEW005 SCT015 BKN025


本日、第9回リモートブリーフィングを開催しました。
勉強会では、レーダーシステムについて講義がありました。

集合 10:00 解散    11:00

本日のフライトはありません。

05月09日
by OGC at 2021/5/9(日) 11:28:01 No.20210509111615 コメント】  削除 引用
1052 x 790 x 31,893バイト <この画像は大きいので別画面で表示します>
No.1

05月09日
本日のリモート参加者
  会員      12名
  その他      0名


@本日の様子






METAR
RJBK 090000Z 25012KT 10km FEW015Cu SCT025Cu 22/15 Q1006 A2973
RJOB 090000Z 26012KT 230V310 9999 FEW020 SCT030 21/12 Q1007
RJOT 090000Z 26022G36KT 9999 FEW025 22/13 Q1007
RJOA 090000Z 28011KT 240V320 9999 FEW035 21/11 Q1008
TAF
RJOB 082306Z 0900/1006 26012KT 9999 FEW030
RJOT 082306Z 0900/1006 26013KT 9999 FEW035
      TEMPO 0900/0903 26016G26KT
      BECMG 0912/0915 19005KT
      BECMG 0921/1000 27010KT
RJOA 082306Z 0900/1006 29011KT 9999 FEW030
      BECMG 1000/1003 20005KT


本日、第8回リモートブリーフィングを開催し、周知事項としては、
・関西圏の緊急事態宣言の延長、中四国の感染拡大を受け、訓練活動を5月末まで自粛します。
 休止期間中はオンラインブリーフィングを開催します。
・今年の岡南飛行場祭りの中止が決定。
です。
勉強会では、GNSS(GPS)システムについて講義がありました。

集合 10:00 解散    10:50

本日のフライトはありません。
04月25日
by OGC at 2021/4/26(月) 01:54:26 No.20210426015320 コメント】  削除 引用
1027 x 677 x 32,328バイト <この画像は大きいので別画面で表示します>
No.1

04月25日
本日のリモート参加者
  会員      10名
  その他      0名


@本日の様子






METAR
RJBK 250000Z VRB04KT 30KM FEW030CU SCT100AC BKN/// 18/07 Q1017 A3003
RJOB 250000Z 36006KT 280V050 9999 FEW030 SCT120 BKN150 16/07 Q1017
RJOT 250000Z 36006KT 9999 FEW015 SCT030 BKN150 16/10 Q1017
RJOA 250000Z 33007KT 300V010 9999 FEW030 BKN130 15/03 Q1017
TAF
RJOB 242307Z 2500/2606 36006KT 9999 FEW020 BKN030
       TEMPO 2506/2509 01015G25KT
RJOT 242310Z 2500/2606 01005KT 9999 FEW025 SCT040
RJOA 242310Z 2500/2606 35004KT 9999 FEW040
       BECMG 2503/2505 02006KT


本日、第7回リモートブリーフィングを開催し、緊急事態宣言解除後の運用等について協議しました。


集合 10:00 解散    10:45

本日のフライトはありません。
新型コロナウイルス対策(活動自粛のお知らせ)
by OGC at 2021/4/21(水) 22:28:41 No.20210421220911 コメント】  削除 引用

 昨今の新型コロナウイルスの感染状況から大阪・兵庫に緊急事態宣言が発せられる見通しとなったことから、しばらくの間、活動自粛することとしました。
 また、前回同様、オンラインブリーフィングを開催しますので、会員の方は参加をよろしくお願いいたします。
04月18日
by OGC at 2021/4/18(日) 19:31:47 No.20210418192514 コメント】  削除 引用
1024 x 768 x 70,583バイト
No.1

04月18日
本日の参加者
  会員      13名
  その他      4名


@本日の様子






METAR
RJBK 180000Z 25016KT 30KM SCT025CU 13/05 Q1011 A2986
RJOB 180000Z 26010KT 190V300 9999 FEW020 SCT030 11/04 Q1010
RJOT 180000Z 27016KT 9999 VCSH FEW020 SCT035 12/03 Q1011
RJOA 180000Z 27012KT 240V300 9999 FEW030 BKN035 08/01 Q1011
TAF
RJOB 172305Z 1800/1906 26012KT 9999 FEW020 SCT035
RJOT 172306Z 1800/1906 26017KT 9999 FEW020 SCT040
     TEMPO 1800/1806 26018G29KT
     BECMG 1808/1810 26007KT
RJOA 172306Z 1800/1906 28014KT 9999 FEW025 BKN045

本日は、風が強く、一時、ガスト32KTで着陸訓練には不向きな天候でした。
訓練生は強風時の訓練、ライセンサーはサーマルやリッジの上昇気流を探していました。

本日の見学者は、なんと岡山を中心に活動しているアイドルグループのShainさんが来られました。(@_@)


解散    17:50

1番機  10:40離陸 撤収機  17:35着陸 

SF25C JA2330 ファルケ     10Flt.3h45min  
17E   JA2342 タイフーン    00Flt.0h00min  
合計                    10Flt.3h45min

 ハードディスクのエラーのチェックと修復方法    MACデータ復旧の費用

ホームページへ 全 52 件 [ 1 2 3 4 5 6 ]

モータースポーツ | 管理者へメール | お知らせ | 一括削除
携帯から使う方法 | ヘルプ | 利用規約 | 違反報告 | 管理パネル



- 無料レンタル掲示板 -